Webcam & Weather

This webcam image will automatically refresh every 15 seconds.


METAR and TAF for EGLL Heathrow (12 Nautical Miles East of White Waltham)

Available data for EGLL from the past hour
LONDON/HEATHROW
Metar
EGLL 150150Z AUTO 24007KT 9999 NCD 15/13 Q1018 NOSIG

01:50 UTC

Wind: 240° 7kt

Visibility: 9999 m

Sky:

Temp: 15 deg C / 59 deg F

Dewpoint: 13 deg C / 55.4 deg F

Pressure: 1018 hPa

TAF
TAF EGLL 142252Z 1500/1606 27010KT 9999 SCT045 PROB30 TEMPO 1502/1509 BKN012 BECMG 1515/1518 21010KT

Play 24 hour timelapse | Play 30 day timelapse

Comments are closed.